createdAt,value
2018-07-23T00:00:21.424Z,99.90
2018-07-23T00:02:50.919Z,99.90
2018-07-23T00:05:20.466Z,99.90
2018-07-23T00:07:50.066Z,99.90
2018-07-23T00:10:19.339Z,99.90
2018-07-23T00:12:48.865Z,99.90
2018-07-23T00:15:18.261Z,99.90
2018-07-23T00:17:48.230Z,99.90
2018-07-23T00:20:17.799Z,99.90
2018-07-23T00:22:46.984Z,99.90
2018-07-23T00:25:16.811Z,99.90
2018-07-23T00:27:46.254Z,99.90
2018-07-23T00:30:16.049Z,99.90
2018-07-23T00:32:45.535Z,99.90
2018-07-23T00:35:15.310Z,99.90
2018-07-23T00:37:44.746Z,99.90
2018-07-23T00:40:13.911Z,99.90
2018-07-23T00:42:43.927Z,99.90
2018-07-23T00:45:13.173Z,99.90
2018-07-23T00:47:42.640Z,99.90
2018-07-23T00:50:11.794Z,99.90
2018-07-23T00:52:41.635Z,99.90
2018-07-23T00:55:11.427Z,99.90
2018-07-23T00:57:41.355Z,99.90
2018-07-23T01:00:10.752Z,99.90
2018-07-23T01:02:39.598Z,99.90
2018-07-23T01:05:09.415Z,99.90
2018-07-23T01:07:38.957Z,99.90
2018-07-23T01:10:08.434Z,99.90
2018-07-23T01:12:37.844Z,99.90
2018-07-23T01:15:07.088Z,99.90
2018-07-23T01:17:35.925Z,99.90
2018-07-23T01:20:05.540Z,99.90
2018-07-23T01:22:35.033Z,99.90
2018-07-23T01:25:04.092Z,99.90
2018-07-23T01:27:33.616Z,99.90
2018-07-23T01:30:03.181Z,99.90
2018-07-23T01:32:33.093Z,99.90
2018-07-23T01:35:02.898Z,99.90
2018-07-23T01:37:32.715Z,99.90
2018-07-23T01:40:02.517Z,99.90
2018-07-23T01:42:32.312Z,99.90
2018-07-23T01:45:01.580Z,99.90
2018-07-23T01:47:31.060Z,99.90
2018-07-23T01:50:00.535Z,99.90
2018-07-23T01:52:30.366Z,99.90
2018-07-23T01:54:59.907Z,99.90
2018-07-23T01:57:29.691Z,99.90
2018-07-23T01:59:59.150Z,99.90
2018-07-23T02:02:28.970Z,99.90
2018-07-23T02:04:58.194Z,99.90
2018-07-23T02:07:27.723Z,99.90
2018-07-23T02:09:56.849Z,99.90
2018-07-23T02:12:26.372Z,99.90
2018-07-23T02:14:56.268Z,99.90
2018-07-23T02:17:25.866Z,99.90
2018-07-23T02:19:55.165Z,99.90
2018-07-23T02:24:53.797Z,99.90
2018-07-23T02:27:23.640Z,99.90
2018-07-23T02:29:52.798Z,99.90
2018-07-23T02:32:22.367Z,99.90
2018-07-23T02:34:52.133Z,99.90
2018-07-23T02:37:21.670Z,99.90
2018-07-23T02:39:51.207Z,99.90
2018-07-23T02:42:21.022Z,99.90
2018-07-23T02:44:50.508Z,99.90
2018-07-23T02:47:20.039Z,99.90
2018-07-23T02:52:18.434Z,99.90
2018-07-23T02:54:47.962Z,99.90
2018-07-23T02:57:17.260Z,99.90
2018-07-23T02:59:46.811Z,99.90
2018-07-23T03:02:16.143Z,99.90
2018-07-23T03:04:46.102Z,99.90
2018-07-23T03:07:15.590Z,99.90
2018-07-23T03:12:13.343Z,99.90
2018-07-23T03:14:43.108Z,99.90
2018-07-23T03:17:12.667Z,99.90
2018-07-23T03:19:42.187Z,99.90
2018-07-23T03:22:11.401Z,99.90
2018-07-23T03:27:10.144Z,99.90
2018-07-23T03:29:40.027Z,99.90
2018-07-23T03:32:09.468Z,99.90
2018-07-23T03:34:39.233Z,99.90
2018-07-23T03:37:09.180Z,99.90
2018-07-23T03:39:38.390Z,99.90
2018-07-23T03:42:07.562Z,99.90
2018-07-23T03:44:37.667Z,99.90
2018-07-23T03:47:07.145Z,99.90
2018-07-23T03:49:36.675Z,99.90
2018-07-23T03:54:35.087Z,99.90
2018-07-23T03:57:04.226Z,99.90
2018-07-23T03:59:33.741Z,99.90
2018-07-23T04:02:03.512Z,99.90
2018-07-23T04:04:33.343Z,99.90
2018-07-23T04:07:03.142Z,99.90
2018-07-23T04:09:32.361Z,99.90
2018-07-23T04:12:01.479Z,99.90
2018-07-23T04:14:31.057Z,99.90
2018-07-23T04:17:00.902Z,99.90
2018-07-23T04:19:30.499Z,99.90
2018-07-23T04:22:00.018Z,99.90
2018-07-23T04:24:29.901Z,99.90
2018-07-23T04:26:59.710Z,99.90
2018-07-23T04:29:29.221Z,99.90
2018-07-23T04:31:58.656Z,99.90
2018-07-23T04:36:57.461Z,99.90
2018-07-23T04:39:26.738Z,99.90
2018-07-23T04:41:56.577Z,99.90
2018-07-23T04:44:26.935Z,99.90
2018-07-23T04:46:56.394Z,99.90
2018-07-23T04:49:25.862Z,99.90
2018-07-23T04:51:55.789Z,99.90
2018-07-23T04:54:25.681Z,99.90
2018-07-23T04:56:55.192Z,99.90
2018-07-23T04:59:24.900Z,99.90
2018-07-23T05:01:54.454Z,99.90
2018-07-23T05:04:24.243Z,99.90
2018-07-23T05:06:53.794Z,99.90
2018-07-23T05:09:23.622Z,99.90
2018-07-23T05:11:53.231Z,99.90
2018-07-23T05:14:22.457Z,99.90
2018-07-23T05:16:51.876Z,99.90
2018-07-23T05:19:21.299Z,99.90
2018-07-23T05:21:51.187Z,99.90
2018-07-23T05:24:21.119Z,99.90
2018-07-23T05:26:50.530Z,99.90
2018-07-23T05:29:20.338Z,99.90
2018-07-23T05:31:49.951Z,99.90
2018-07-23T05:34:19.993Z,99.90
2018-07-23T05:36:49.793Z,99.90
2018-07-23T05:39:19.072Z,99.90
2018-07-23T05:41:48.547Z,99.90
2018-07-23T05:44:18.329Z,99.90
2018-07-23T05:46:47.790Z,99.90
2018-07-23T05:49:17.626Z,99.90
2018-07-23T05:51:47.089Z,99.90
2018-07-23T05:54:16.245Z,99.90
2018-07-23T05:56:45.735Z,99.90
2018-07-23T05:59:15.483Z,99.90
2018-07-23T06:01:44.759Z,99.90
2018-07-23T06:04:14.705Z,99.90
2018-07-23T06:06:44.367Z,99.90
2018-07-23T06:09:13.774Z,99.90
2018-07-23T06:11:43.386Z,99.90
2018-07-23T06:14:13.315Z,99.90
2018-07-23T06:16:42.836Z,99.90
2018-07-23T06:19:12.662Z,99.90
2018-07-23T06:21:42.197Z,99.90
2018-07-23T06:24:11.680Z,99.90
2018-07-23T06:26:40.579Z,99.90
2018-07-23T06:29:10.075Z,99.90
2018-07-23T06:31:39.563Z,99.90
2018-07-23T06:34:08.657Z,99.90
2018-07-23T06:36:38.137Z,99.90
2018-07-23T06:39:09.275Z,99.90
2018-07-23T06:41:39.412Z,99.90
2018-07-23T06:44:08.931Z,99.90
2018-07-23T06:46:38.703Z,99.90
2018-07-23T06:49:08.362Z,99.90
2018-07-23T06:51:37.802Z,99.90
2018-07-23T06:54:07.421Z,99.90
2018-07-23T06:56:37.099Z,99.90
2018-07-23T06:59:06.527Z,99.90
2018-07-23T07:01:36.000Z,99.90
2018-07-23T07:06:34.865Z,99.90
2018-07-23T07:09:06.925Z,99.90
2018-07-23T07:11:36.414Z,99.90
2018-07-23T07:14:06.563Z,99.90
2018-07-23T07:16:36.010Z,99.90
2018-07-23T07:19:05.586Z,99.90
2018-07-23T07:21:35.119Z,99.90
2018-07-23T07:24:04.935Z,99.90
2018-07-23T07:26:34.522Z,99.90
2018-07-23T07:29:03.812Z,99.90
2018-07-23T07:31:33.650Z,99.90
2018-07-23T07:34:03.579Z,99.90
2018-07-23T07:36:32.777Z,99.90
2018-07-23T07:39:02.636Z,99.90
2018-07-23T07:41:31.962Z,99.60
2018-07-23T07:44:01.809Z,99.60
2018-07-23T07:46:31.370Z,97.90
2018-07-23T07:49:01.024Z,96.30
2018-07-23T07:51:30.514Z,96.10
2018-07-23T07:54:00.017Z,95.30
2018-07-23T07:56:30.213Z,94.00
2018-07-23T07:58:59.370Z,92.40
2018-07-23T08:01:28.847Z,91.70
2018-07-23T08:03:58.290Z,90.50
2018-07-23T08:06:27.858Z,87.10
2018-07-23T08:08:57.669Z,82.80
2018-07-23T08:11:27.098Z,82.70
2018-07-23T08:13:56.967Z,82.50
2018-07-23T08:16:26.185Z,81.40
2018-07-23T08:18:55.282Z,79.90
2018-07-23T08:21:24.904Z,76.70
2018-07-23T08:23:54.413Z,76.60
2018-07-23T08:26:23.529Z,75.50
2018-07-23T08:28:52.766Z,72.70
2018-07-23T08:31:22.454Z,71.80
2018-07-23T08:33:52.230Z,71.70
2018-07-23T08:36:21.777Z,72.10
2018-07-23T08:38:51.563Z,70.70
2018-07-23T08:41:21.319Z,72.10
2018-07-23T08:43:51.218Z,71.10
2018-07-23T08:46:20.718Z,70.10
2018-07-23T08:48:50.223Z,67.60
2018-07-23T08:51:19.751Z,66.80
2018-07-23T08:53:49.754Z,65.70
2018-07-23T08:56:19.235Z,66.60
2018-07-23T08:58:48.706Z,66.00
2018-07-23T09:01:18.572Z,65.10
2018-07-23T09:03:48.120Z,66.60
2018-07-23T09:06:17.586Z,66.80
2018-07-23T09:08:47.607Z,64.60
2018-07-23T09:11:16.925Z,62.30
2018-07-23T09:13:46.701Z,61.50
2018-07-23T09:16:16.522Z,59.80
2018-07-23T09:18:46.327Z,60.80
2018-07-23T09:21:15.433Z,59.90
2018-07-23T09:23:45.348Z,60.00
2018-07-23T09:26:14.499Z,59.50
2018-07-23T09:28:44.400Z,57.70
2018-07-23T09:31:14.221Z,56.60
2018-07-23T09:33:43.759Z,54.80
2018-07-23T09:36:13.530Z,54.50
2018-07-23T09:41:12.211Z,51.50
2018-07-23T09:43:41.178Z,51.70
2018-07-23T09:46:11.058Z,51.40
2018-07-23T09:48:40.505Z,50.70
2018-07-23T09:51:10.320Z,51.40
2018-07-23T09:53:39.817Z,51.90
2018-07-23T09:56:09.710Z,52.10
2018-07-23T09:58:39.145Z,51.40
2018-07-23T10:01:11.255Z,50.50
2018-07-23T10:03:42.062Z,50.30
2018-07-23T10:06:11.683Z,50.10
2018-07-23T10:08:41.530Z,49.60
2018-07-23T10:11:10.681Z,48.90
2018-07-23T10:13:40.503Z,49.40
2018-07-23T10:16:10.293Z,49.60
2018-07-23T10:18:39.766Z,48.80
2018-07-23T10:21:08.865Z,50.30
2018-07-23T10:23:38.170Z,54.30
2018-07-23T10:26:07.325Z,54.10
2018-07-23T10:28:37.131Z,52.40
2018-07-23T10:31:06.566Z,51.00
2018-07-23T10:33:36.102Z,51.90
2018-07-23T10:36:05.554Z,48.70
2018-07-23T10:38:35.101Z,48.80
2018-07-23T10:41:04.613Z,48.60
2018-07-23T10:43:34.380Z,47.20
2018-07-23T10:46:03.759Z,46.70
2018-07-23T10:48:33.689Z,46.70
2018-07-23T10:51:03.190Z,46.90
2018-07-23T10:53:32.528Z,45.90
2018-07-23T10:58:31.803Z,45.50
2018-07-23T11:01:01.550Z,46.50
2018-07-23T11:03:31.480Z,46.20
2018-07-23T11:06:00.934Z,46.00
2018-07-23T11:08:30.666Z,46.20
2018-07-23T11:11:00.510Z,45.60
2018-07-23T11:13:29.958Z,45.70
2018-07-23T11:16:00.093Z,46.00
2018-07-23T11:18:29.215Z,45.90
2018-07-23T11:20:59.104Z,43.10
2018-07-23T11:23:28.962Z,43.70
2018-07-23T11:25:58.980Z,43.80
2018-07-23T11:28:28.785Z,45.00
2018-07-23T11:30:58.332Z,45.20
2018-07-23T11:33:28.172Z,43.00
2018-07-23T11:35:57.716Z,43.50
2018-07-23T11:38:27.557Z,43.40
2018-07-23T11:40:56.767Z,41.80
2018-07-23T11:43:26.222Z,40.50
2018-07-23T11:45:55.755Z,39.60
2018-07-23T11:48:25.607Z,39.10
2018-07-23T11:50:54.861Z,39.00
2018-07-23T11:53:24.424Z,38.30
2018-07-23T11:55:54.851Z,39.10
2018-07-23T11:58:24.715Z,40.50
2018-07-23T12:00:54.186Z,41.60
2018-07-23T12:03:24.030Z,39.20
2018-07-23T12:05:53.477Z,38.50
2018-07-23T12:08:23.408Z,37.60
2018-07-23T12:10:52.550Z,37.50
2018-07-23T12:13:22.406Z,36.70
2018-07-23T12:15:51.897Z,36.80
2018-07-23T12:18:21.409Z,36.40
2018-07-23T12:20:51.190Z,35.70
2018-07-23T12:23:20.980Z,35.50
2018-07-23T12:25:50.351Z,36.20
2018-07-23T12:28:19.829Z,35.90
2018-07-23T12:30:49.334Z,35.40
2018-07-23T12:33:19.128Z,34.30
2018-07-23T12:35:48.647Z,35.80
2018-07-23T12:38:18.064Z,36.70
2018-07-23T12:40:47.853Z,36.10
2018-07-23T12:43:17.423Z,35.50
2018-07-23T12:45:47.168Z,35.40
2018-07-23T12:48:17.007Z,36.80
2018-07-23T12:50:46.185Z,37.40
2018-07-23T12:53:15.672Z,36.80
2018-07-23T12:55:45.122Z,36.20
2018-07-23T12:58:14.798Z,35.40
2018-07-23T13:00:44.541Z,35.80
2018-07-23T13:03:14.346Z,36.00
2018-07-23T13:05:44.092Z,36.20
2018-07-23T13:08:13.615Z,35.00
2018-07-23T13:10:42.928Z,34.30
2018-07-23T13:13:12.482Z,35.00
2018-07-23T13:15:41.668Z,38.00
2018-07-23T13:23:08.577Z,39.40
2018-07-23T13:25:37.770Z,38.70
2018-07-23T13:28:07.784Z,39.10
2018-07-23T13:30:36.926Z,39.10
2018-07-23T13:35:35.250Z,38.10
2018-07-23T13:38:04.209Z,37.70
2018-07-23T13:40:33.453Z,36.40
2018-07-23T13:43:02.587Z,37.30
2018-07-23T13:45:32.129Z,35.90
2018-07-23T13:48:01.557Z,36.50
2018-07-23T13:50:30.882Z,36.90
2018-07-23T13:53:00.067Z,37.80
2018-07-23T13:55:29.276Z,37.60
2018-07-23T13:57:58.406Z,37.30
2018-07-23T14:00:28.179Z,36.50
2018-07-23T14:02:57.749Z,36.40
2018-07-23T14:05:27.202Z,36.10
2018-07-23T14:07:56.956Z,36.30
2018-07-23T14:10:26.532Z,36.70
2018-07-23T14:12:56.341Z,36.60
2018-07-23T14:15:25.567Z,36.70
2018-07-23T14:17:55.027Z,35.50
2018-07-23T14:20:24.871Z,36.20
2018-07-23T14:22:54.699Z,38.20
2018-07-23T14:25:24.250Z,40.00
2018-07-23T14:27:54.025Z,40.70
2018-07-23T14:30:23.391Z,41.10
2018-07-23T14:32:52.230Z,41.40
2018-07-23T14:35:21.478Z,42.80
2018-07-23T14:37:50.636Z,43.80
2018-07-23T14:40:20.100Z,44.40
2018-07-23T14:42:49.574Z,44.40
2018-07-23T14:45:19.414Z,45.10
2018-07-23T14:47:49.020Z,46.00
2018-07-23T14:50:18.417Z,45.70
2018-07-23T14:52:47.881Z,45.00
2018-07-23T14:55:17.144Z,45.80
2018-07-23T14:57:46.864Z,46.10
2018-07-23T15:00:16.566Z,46.10
2018-07-23T15:02:46.403Z,45.80
2018-07-23T15:05:16.327Z,46.40
2018-07-23T15:07:46.198Z,46.60
2018-07-23T15:10:15.884Z,46.80
2018-07-23T15:12:45.475Z,47.10
2018-07-23T15:15:15.307Z,47.50
2018-07-23T15:17:45.383Z,48.00
2018-07-23T15:20:14.945Z,47.50
2018-07-23T15:22:44.900Z,47.70
2018-07-23T15:25:14.791Z,48.20
2018-07-23T15:27:44.321Z,48.00
2018-07-23T15:30:14.186Z,47.50
2018-07-23T15:32:44.130Z,47.80
2018-07-23T15:35:14.001Z,48.80
2018-07-23T15:37:43.806Z,48.90
2018-07-23T15:40:13.819Z,48.50
2018-07-23T15:42:43.699Z,48.60
2018-07-23T15:45:13.387Z,48.80
2018-07-23T15:47:43.255Z,48.90
2018-07-23T15:50:12.843Z,47.50
2018-07-23T15:52:42.388Z,48.00
2018-07-23T15:55:11.872Z,47.70
2018-07-23T15:57:41.387Z,48.40
2018-07-23T16:00:11.484Z,49.40
2018-07-23T16:02:40.966Z,49.80
2018-07-23T16:05:10.809Z,49.30
2018-07-23T16:07:40.639Z,48.30
2018-07-23T16:10:10.499Z,48.60
2018-07-23T16:12:40.298Z,46.90
2018-07-23T16:15:10.153Z,47.70
2018-07-23T16:17:39.648Z,48.40
2018-07-23T16:20:09.081Z,48.90
2018-07-23T16:22:38.668Z,49.10
2018-07-23T16:25:08.647Z,49.90
2018-07-23T16:27:38.166Z,50.80
2018-07-23T16:30:08.522Z,50.90
2018-07-23T16:32:37.931Z,51.00
2018-07-23T16:35:09.434Z,50.80
2018-07-23T16:37:38.630Z,51.30
2018-07-23T16:40:08.408Z,51.70
2018-07-23T16:42:37.738Z,51.70
2018-07-23T16:45:07.228Z,51.90
2018-07-23T16:47:37.038Z,52.30
2018-07-23T16:50:06.483Z,52.20
2018-07-23T16:52:36.145Z,52.90
2018-07-23T16:55:05.511Z,52.60
2018-07-23T16:57:35.018Z,53.00
2018-07-23T17:00:05.396Z,53.00
2018-07-23T17:02:35.281Z,53.10
2018-07-23T17:05:05.941Z,53.50
2018-07-23T17:10:04.123Z,53.70
2018-07-23T17:12:33.835Z,53.90
2018-07-23T17:15:03.304Z,53.50
2018-07-23T17:17:32.478Z,53.90
2018-07-23T17:20:01.724Z,54.00
2018-07-23T17:22:31.376Z,53.50
2018-07-23T17:25:00.990Z,54.70
2018-07-23T17:27:30.475Z,54.30
2018-07-23T17:30:00.078Z,54.50
2018-07-23T17:32:29.706Z,55.20
2018-07-23T17:34:59.562Z,54.70
2018-07-23T17:37:29.059Z,55.00
2018-07-23T17:39:58.905Z,55.10
2018-07-23T17:42:28.539Z,55.40
2018-07-23T17:44:58.408Z,55.60
2018-07-23T17:47:29.151Z,55.70
2018-07-23T17:49:58.657Z,55.80
2018-07-23T17:52:27.982Z,56.30
2018-07-23T17:54:57.397Z,56.00
2018-07-23T17:57:26.229Z,56.10
2018-07-23T17:59:55.959Z,56.20
2018-07-23T18:02:25.560Z,56.90
2018-07-23T18:04:55.071Z,56.20
2018-07-23T18:07:24.865Z,56.20
2018-07-23T18:09:54.730Z,56.50
2018-07-23T18:12:24.205Z,56.10
2018-07-23T18:14:53.653Z,56.50
2018-07-23T18:17:23.634Z,57.00
2018-07-23T18:19:53.296Z,57.40
2018-07-23T18:22:22.751Z,57.60
2018-07-23T18:24:52.745Z,57.70
2018-07-23T18:27:22.553Z,57.90
2018-07-23T18:29:52.370Z,57.80
2018-07-23T18:32:21.891Z,58.10
2018-07-23T18:34:51.710Z,58.10
2018-07-23T18:37:21.636Z,58.50
2018-07-23T18:42:20.558Z,58.40
2018-07-23T18:44:50.410Z,59.10
2018-07-23T18:47:20.215Z,58.50
2018-07-23T18:49:54.755Z,58.70
2018-07-23T18:52:25.087Z,59.10
2018-07-23T18:54:56.356Z,59.10
2018-07-23T18:57:25.577Z,59.30
2018-07-23T18:59:54.696Z,59.30
2018-07-23T19:02:24.339Z,59.80
2018-07-23T19:04:54.144Z,60.00
2018-07-23T19:07:23.661Z,59.90
2018-07-23T19:09:52.950Z,60.10
2018-07-23T19:12:22.151Z,60.50
2018-07-23T19:14:51.682Z,60.80
2018-07-23T19:17:21.347Z,61.60
2018-07-23T19:19:50.883Z,61.40
2018-07-23T19:22:20.746Z,60.90
2018-07-23T19:24:50.224Z,60.80
2018-07-23T19:27:19.738Z,61.30
2018-07-23T19:29:49.759Z,62.10
2018-07-23T19:32:19.353Z,61.00
2018-07-23T19:34:49.199Z,60.90
2018-07-23T19:37:19.087Z,60.90
2018-07-23T19:39:48.932Z,61.10
2018-07-23T19:42:18.942Z,61.10
2018-07-23T19:44:48.977Z,61.70
2018-07-23T19:47:18.829Z,62.80
2018-07-23T19:49:48.713Z,62.40
2018-07-23T19:52:18.236Z,62.90
2018-07-23T19:54:48.071Z,62.50
2018-07-23T19:57:17.728Z,62.00
2018-07-23T19:59:47.527Z,62.40
2018-07-23T20:02:17.051Z,62.50
2018-07-23T20:04:46.200Z,62.70
2018-07-23T20:07:16.057Z,63.80
2018-07-23T20:09:45.860Z,63.50
2018-07-23T20:12:15.810Z,63.60
2018-07-23T20:14:45.423Z,64.70
2018-07-23T20:17:14.966Z,64.80
2018-07-23T20:19:44.449Z,64.40
2018-07-23T20:22:14.007Z,64.70
2018-07-23T20:24:43.749Z,64.90
2018-07-23T20:27:13.337Z,64.40
2018-07-23T20:29:42.519Z,64.20
2018-07-23T20:32:12.161Z,64.30
2018-07-23T20:34:42.208Z,64.40
2018-07-23T20:37:12.177Z,65.00
2018-07-23T20:39:41.999Z,64.80
2018-07-23T20:42:11.806Z,65.40
2018-07-23T20:44:42.925Z,65.00
2018-07-23T20:47:12.726Z,64.60
2018-07-23T20:49:42.956Z,65.10
2018-07-23T20:52:12.755Z,66.00
2018-07-23T20:54:42.520Z,65.30
2018-07-23T20:57:12.318Z,65.30
2018-07-23T20:59:41.881Z,65.50
2018-07-23T21:02:11.120Z,66.30
2018-07-23T21:04:40.586Z,66.60
2018-07-23T21:07:10.353Z,66.70
2018-07-23T21:09:39.652Z,66.70
2018-07-23T21:12:08.797Z,66.60
2018-07-23T21:14:38.536Z,66.80
2018-07-23T21:17:08.361Z,66.70
2018-07-23T21:19:37.595Z,66.80
2018-07-23T21:22:07.070Z,66.90
2018-07-23T21:24:36.485Z,66.70
2018-07-23T21:27:06.333Z,67.20
2018-07-23T21:29:36.085Z,67.20
2018-07-23T21:32:05.235Z,67.30
2018-07-23T21:34:35.063Z,67.50
2018-07-23T21:37:04.193Z,67.60
2018-07-23T21:39:34.005Z,67.50
2018-07-23T21:42:03.437Z,67.80
2018-07-23T21:44:32.909Z,68.10
2018-07-23T21:47:02.414Z,68.50
2018-07-23T21:49:31.660Z,68.80
2018-07-23T21:52:01.327Z,69.10
2018-07-23T21:54:30.939Z,69.30
2018-07-23T21:57:00.626Z,70.10
2018-07-23T21:59:29.816Z,69.70
2018-07-23T22:01:59.321Z,69.90
2018-07-23T22:04:28.573Z,70.00
2018-07-23T22:06:58.356Z,70.70
2018-07-23T22:09:27.249Z,71.80
2018-07-23T22:11:56.821Z,71.70
2018-07-23T22:14:26.620Z,71.70
2018-07-23T22:16:56.082Z,72.10
2018-07-23T22:19:25.225Z,72.20
2018-07-23T22:21:54.793Z,72.50
2018-07-23T22:24:24.244Z,72.70
2018-07-23T22:26:54.090Z,73.10
2018-07-23T22:29:23.865Z,73.20
2018-07-23T22:31:53.338Z,73.60
2018-07-23T22:34:23.175Z,74.00
2018-07-23T22:36:52.729Z,74.90
2018-07-23T22:39:22.488Z,74.60
2018-07-23T22:41:52.252Z,74.90
2018-07-23T22:44:21.451Z,75.00
2018-07-23T22:46:50.973Z,75.70
2018-07-23T22:49:20.126Z,76.10
2018-07-23T22:51:50.137Z,76.40
2018-07-23T22:54:19.979Z,77.70
2018-07-23T22:56:49.833Z,77.80
2018-07-23T22:59:19.602Z,78.30
2018-07-23T23:01:48.805Z,79.80
2018-07-23T23:04:18.786Z,81.10
2018-07-23T23:06:48.068Z,82.20
2018-07-23T23:09:17.558Z,82.60
2018-07-23T23:11:46.729Z,83.90
2018-07-23T23:14:16.156Z,84.90
2018-07-23T23:16:45.608Z,86.30
2018-07-23T23:19:15.600Z,88.80
2018-07-23T23:21:45.444Z,90.20
2018-07-23T23:24:14.942Z,91.60
2018-07-23T23:26:44.411Z,92.80
2018-07-23T23:29:13.891Z,94.30
2018-07-23T23:31:43.396Z,95.30
2018-07-23T23:34:13.074Z,97.20
2018-07-23T23:36:42.555Z,99.80
2018-07-23T23:39:12.923Z,99.90
2018-07-23T23:41:42.505Z,99.90
2018-07-23T23:44:12.362Z,99.90
2018-07-23T23:46:42.260Z,99.90
2018-07-23T23:49:11.739Z,99.90
2018-07-23T23:51:41.527Z,99.90
2018-07-23T23:54:11.018Z,99.90
2018-07-23T23:56:40.897Z,99.90
2018-07-23T23:59:10.511Z,99.90
